createdAt,value
2018-07-19T00:00:16.906Z,3.42
2018-07-19T00:01:20.667Z,3.25
2018-07-19T00:02:24.159Z,3.25
2018-07-19T00:03:27.579Z,3.45
2018-07-19T00:04:30.968Z,3.12
2018-07-19T00:05:35.770Z,3.50
2018-07-19T00:06:39.187Z,3.40
2018-07-19T00:07:42.630Z,3.50
2018-07-19T00:08:46.035Z,3.22
2018-07-19T00:09:49.427Z,3.00
2018-07-19T00:10:53.850Z,3.27
2018-07-19T00:11:57.268Z,3.20
2018-07-19T00:13:00.673Z,3.08
2018-07-19T00:14:04.078Z,3.20
2018-07-19T00:15:07.868Z,3.40
2018-07-19T00:16:12.314Z,3.58
2018-07-19T00:17:15.723Z,3.50
2018-07-19T00:18:18.863Z,3.40
2018-07-19T00:19:22.275Z,3.27
2018-07-19T00:20:27.574Z,3.75
2018-07-19T00:21:31.192Z,3.37
2018-07-19T00:22:34.283Z,3.22
2018-07-19T00:23:37.683Z,3.50
2018-07-19T00:24:41.095Z,3.60
2018-07-19T00:25:45.559Z,3.83
2018-07-19T00:26:48.985Z,3.80
2018-07-19T00:27:52.431Z,3.62
2018-07-19T00:28:55.557Z,3.47
2018-07-19T00:29:58.971Z,3.60
2018-07-19T00:31:03.500Z,3.90
2018-07-19T00:32:07.245Z,3.67
2018-07-19T00:33:10.635Z,3.33
2018-07-19T00:34:14.017Z,3.70
2018-07-19T00:35:18.445Z,3.60
2018-07-19T00:36:22.758Z,3.50
2018-07-19T00:37:26.191Z,3.60
2018-07-19T00:38:29.603Z,3.65
2018-07-19T00:39:32.990Z,3.22
2018-07-19T00:40:37.513Z,3.17
2018-07-19T00:41:44.816Z,3.67
2018-07-19T00:42:48.207Z,3.52
2018-07-19T00:43:51.591Z,3.55
2018-07-19T00:44:54.991Z,3.67
2018-07-19T00:45:59.392Z,3.40
2018-07-19T00:47:02.686Z,3.45
2018-07-19T00:48:05.774Z,3.40
2018-07-19T00:49:09.165Z,3.45
2018-07-19T00:50:14.642Z,3.70
2018-07-19T00:51:19.627Z,3.67
2018-07-19T00:52:23.086Z,3.75
2018-07-19T00:53:26.475Z,3.60
2018-07-19T00:54:29.863Z,3.77
2018-07-19T00:55:34.422Z,3.50
2018-07-19T00:56:37.872Z,3.80
2018-07-19T00:57:41.259Z,3.67
2018-07-19T00:58:44.346Z,3.60
2018-07-19T00:59:47.444Z,3.58
2018-07-19T01:00:51.880Z,3.52
2018-07-19T01:01:55.343Z,3.75
2018-07-19T01:02:58.731Z,3.95
2018-07-19T01:04:02.148Z,3.87
2018-07-19T01:05:06.497Z,3.77
2018-07-19T01:06:11.021Z,3.77
2018-07-19T01:07:14.435Z,4.12
2018-07-19T01:08:17.839Z,3.45
2018-07-19T01:09:21.227Z,4.00
2018-07-19T01:10:25.767Z,3.62
2018-07-19T01:11:30.159Z,3.47
2018-07-19T01:12:33.563Z,3.87
2018-07-19T01:13:36.959Z,3.80
2018-07-19T01:14:40.419Z,4.08
2018-07-19T01:15:45.366Z,4.50
2018-07-19T01:16:48.811Z,4.20
2018-07-19T01:17:52.224Z,4.47
2018-07-19T01:18:55.611Z,4.10
2018-07-19T01:19:58.995Z,3.83
2018-07-19T01:21:03.490Z,3.90
2018-07-19T01:22:06.958Z,4.50
2018-07-19T01:23:10.387Z,4.05
2018-07-19T01:24:13.779Z,4.25
2018-07-19T01:25:18.290Z,4.12
2018-07-19T01:26:22.266Z,4.65
2018-07-19T01:27:25.683Z,4.42
2018-07-19T01:28:29.091Z,4.35
2018-07-19T01:29:32.482Z,4.30
2018-07-19T01:30:36.902Z,4.00
2018-07-19T01:31:40.328Z,4.50
2018-07-19T01:32:43.711Z,4.05
2018-07-19T01:33:47.159Z,3.98
2018-07-19T01:34:50.543Z,4.17
2018-07-19T01:35:55.014Z,4.20
2018-07-19T01:36:58.439Z,4.55
2018-07-19T01:38:01.830Z,4.10
2018-07-19T01:39:07.804Z,4.33
2018-07-19T01:40:12.192Z,4.17
2018-07-19T01:41:28.643Z,4.50
2018-07-19T01:42:33.874Z,4.33
2018-07-19T01:43:37.259Z,4.10
2018-07-19T01:44:40.358Z,4.20
2018-07-19T01:45:44.288Z,4.37
2018-07-19T01:46:47.715Z,3.80
2018-07-19T01:47:51.103Z,4.30
2018-07-19T01:48:54.511Z,4.22
2018-07-19T01:49:57.621Z,4.40
2018-07-19T01:51:02.089Z,4.03
2018-07-19T01:52:05.846Z,3.85
2018-07-19T01:53:09.251Z,4.03
2018-07-19T01:54:12.667Z,4.00
2018-07-19T01:55:17.186Z,4.10
2018-07-19T01:56:22.079Z,3.80
2018-07-19T01:57:25.195Z,4.15
2018-07-19T01:58:28.579Z,4.62
2018-07-19T01:59:32.114Z,3.95
2018-07-19T02:00:36.604Z,4.08
2018-07-19T02:01:40.032Z,3.85
2018-07-19T02:02:43.455Z,3.90
2018-07-19T02:03:46.847Z,4.08
2018-07-19T02:04:50.235Z,3.65
2018-07-19T02:05:55.440Z,4.40
2018-07-19T02:06:58.859Z,4.30
2018-07-19T02:08:02.259Z,4.40
2018-07-19T02:09:06.347Z,4.33
2018-07-19T02:10:10.791Z,4.00
2018-07-19T02:11:15.850Z,3.83
2018-07-19T02:12:19.255Z,4.33
2018-07-19T02:13:22.631Z,4.22
2018-07-19T02:14:26.065Z,3.87
2018-07-19T02:15:30.561Z,4.85
2018-07-19T02:16:33.987Z,3.72
2018-07-19T02:17:37.399Z,4.10
2018-07-19T02:18:40.791Z,4.45
2018-07-19T02:19:44.187Z,4.35
2018-07-19T02:20:48.789Z,3.92
2018-07-19T02:21:52.215Z,4.17
2018-07-19T02:22:55.622Z,4.25
2018-07-19T02:23:59.031Z,4.30
2018-07-19T02:25:02.238Z,4.50
2018-07-19T02:26:07.774Z,4.35
2018-07-19T02:27:11.215Z,4.33
2018-07-19T02:28:14.652Z,4.65
2018-07-19T02:29:18.040Z,4.75
2018-07-19T02:30:22.592Z,4.10
2018-07-19T02:31:27.175Z,4.45
2018-07-19T02:32:30.643Z,4.05
2018-07-19T02:33:34.031Z,4.58
2018-07-19T02:34:37.422Z,4.33
2018-07-19T02:35:41.878Z,4.50
2018-07-19T02:36:45.299Z,3.90
2018-07-19T02:37:48.690Z,4.75
2018-07-19T02:38:52.089Z,4.58
2018-07-19T02:39:55.490Z,4.67
2018-07-19T02:40:59.954Z,4.40
2018-07-19T02:42:03.399Z,4.75
2018-07-19T02:43:06.793Z,4.80
2018-07-19T02:44:11.215Z,4.50
2018-07-19T02:45:16.661Z,4.72
2018-07-19T02:46:21.189Z,4.50
2018-07-19T02:47:24.631Z,4.55
2018-07-19T02:48:28.015Z,4.10
2018-07-19T02:49:31.396Z,4.37
2018-07-19T02:50:36.272Z,4.75
2018-07-19T02:51:40.755Z,4.40
2018-07-19T02:52:44.204Z,4.12
2018-07-19T02:53:47.602Z,3.98
2018-07-19T02:54:50.987Z,4.92
2018-07-19T02:55:55.989Z,4.58
2018-07-19T02:56:59.403Z,4.50
2018-07-19T02:58:02.818Z,4.50
2018-07-19T02:59:06.239Z,4.70
2018-07-19T03:00:10.808Z,4.33
2018-07-19T03:01:15.347Z,4.97
2018-07-19T03:02:18.819Z,4.87
2018-07-19T03:03:22.237Z,4.40
2018-07-19T03:04:25.319Z,4.72
2018-07-19T03:05:29.872Z,4.35
2018-07-19T03:06:33.298Z,4.50
2018-07-19T03:07:36.692Z,4.87
2018-07-19T03:08:40.135Z,4.45
2018-07-19T03:09:44.002Z,4.85
2018-07-19T03:10:48.368Z,5.03
2018-07-19T03:11:51.484Z,4.33
2018-07-19T03:12:54.867Z,4.70
2018-07-19T03:13:58.302Z,4.50
2018-07-19T03:15:01.726Z,4.70
2018-07-19T03:16:06.078Z,4.28
2018-07-19T03:17:09.555Z,4.50
2018-07-19T03:18:13.075Z,4.95
2018-07-19T03:19:16.537Z,4.83
2018-07-19T03:20:20.805Z,4.60
2018-07-19T03:21:24.890Z,4.65
2018-07-19T03:22:28.299Z,4.60
2018-07-19T03:23:31.703Z,4.40
2018-07-19T03:24:35.115Z,4.17
2018-07-19T03:25:39.662Z,4.92
2018-07-19T03:26:42.762Z,4.53
2018-07-19T03:27:45.846Z,4.10
2018-07-19T03:28:49.228Z,4.58
2018-07-19T03:29:52.667Z,4.17
2018-07-19T03:30:57.222Z,4.20
2018-07-19T03:32:00.311Z,4.10
2018-07-19T03:33:03.398Z,4.28
2018-07-19T03:34:13.211Z,3.98
2018-07-19T03:35:17.917Z,4.30
2018-07-19T03:36:22.864Z,4.25
2018-07-19T03:37:26.295Z,4.25
2018-07-19T03:38:29.671Z,3.83
2018-07-19T03:39:33.060Z,4.50
2018-07-19T03:40:37.588Z,4.53
2018-07-19T03:41:41.287Z,4.50
2018-07-19T03:42:44.687Z,4.12
2018-07-19T03:43:48.075Z,4.25
2018-07-19T03:44:51.479Z,4.72
2018-07-19T03:45:56.587Z,4.50
2018-07-19T03:47:00.039Z,4.08
2018-07-19T03:48:03.455Z,3.87
2018-07-19T03:49:06.879Z,3.45
2018-07-19T03:50:11.197Z,6.25
2018-07-19T03:51:16.287Z,4.28
2018-07-19T03:52:19.398Z,4.00
2018-07-19T03:53:22.790Z,4.05
2018-07-19T03:54:26.178Z,3.92
2018-07-19T03:55:30.716Z,4.33
2018-07-19T03:56:34.155Z,3.80
2018-07-19T03:57:37.535Z,4.12
2018-07-19T03:58:40.643Z,4.30
2018-07-19T03:59:44.031Z,4.50
2018-07-19T04:00:48.403Z,4.03
2018-07-19T04:01:51.877Z,4.20
2018-07-19T04:02:55.239Z,4.58
2018-07-19T04:03:58.623Z,4.35
2018-07-19T04:05:02.203Z,4.35
2018-07-19T04:06:06.654Z,4.47
2018-07-19T04:07:10.131Z,4.85
2018-07-19T04:08:13.524Z,4.30
2018-07-19T04:09:16.910Z,4.40
2018-07-19T04:10:21.526Z,4.85
2018-07-19T04:11:26.465Z,4.67
2018-07-19T04:12:29.908Z,4.00
2018-07-19T04:13:33.303Z,4.62
2018-07-19T04:14:36.691Z,4.75
2018-07-19T04:15:42.079Z,4.58
2018-07-19T04:16:45.503Z,4.42
2018-07-19T04:17:57.022Z,4.58
2018-07-19T04:19:00.107Z,4.80
2018-07-19T04:20:03.735Z,4.75
2018-07-19T04:21:08.287Z,4.70
2018-07-19T04:22:11.723Z,4.60
2018-07-19T04:23:15.201Z,6.78
2018-07-19T04:24:18.551Z,11.50
2018-07-19T04:25:23.450Z,5.67
2018-07-19T04:26:27.780Z,4.55
2018-07-19T04:27:31.195Z,4.85
2018-07-19T04:28:34.607Z,4.80
2018-07-19T04:29:37.993Z,4.80
2018-07-19T04:30:42.479Z,4.65
2018-07-19T04:31:45.891Z,4.92
2018-07-19T04:32:49.295Z,5.00
2018-07-19T04:33:52.803Z,4.47
2018-07-19T04:34:56.215Z,4.40
2018-07-19T04:36:01.164Z,4.62
2018-07-19T04:37:04.623Z,4.80
2018-07-19T04:38:08.009Z,4.67
2018-07-19T04:39:11.416Z,4.58
2018-07-19T04:40:18.938Z,6.22
2018-07-19T04:41:23.650Z,5.28
2018-07-19T04:42:27.083Z,4.00
2018-07-19T04:43:30.475Z,4.00
2018-07-19T04:44:33.879Z,3.92
2018-07-19T04:45:38.389Z,3.83
2018-07-19T04:46:41.827Z,4.22
2018-07-19T04:47:45.219Z,3.95
2018-07-19T04:48:48.616Z,4.05
2018-07-19T04:49:52.036Z,4.55
2018-07-19T04:50:56.657Z,4.20
2018-07-19T04:52:00.895Z,4.12
2018-07-19T04:53:04.290Z,4.10
2018-07-19T04:54:07.874Z,3.60
2018-07-19T04:55:12.456Z,3.65
2018-07-19T04:56:17.095Z,3.50
2018-07-19T04:57:20.519Z,4.20
2018-07-19T04:58:23.690Z,3.80
2018-07-19T04:59:27.071Z,3.80
2018-07-19T05:00:31.627Z,3.60
2018-07-19T05:01:35.087Z,4.37
2018-07-19T05:02:38.489Z,3.70
2018-07-19T05:03:41.935Z,4.03
2018-07-19T05:04:45.331Z,3.98
2018-07-19T05:05:50.825Z,4.05
2018-07-19T05:06:54.313Z,4.75
2018-07-19T05:07:57.704Z,4.28
2018-07-19T05:09:01.092Z,3.72
2018-07-19T05:10:05.088Z,4.12
2018-07-19T05:11:09.523Z,3.92
2018-07-19T05:12:12.658Z,3.90
2018-07-19T05:13:16.075Z,3.70
2018-07-19T05:14:19.455Z,4.42
2018-07-19T05:15:23.931Z,4.15
2018-07-19T05:16:28.223Z,3.42
2018-07-19T05:17:31.306Z,3.75
2018-07-19T05:18:34.695Z,3.30
2018-07-19T05:19:38.091Z,3.90
2018-07-19T05:20:42.596Z,3.58
2018-07-19T05:21:46.031Z,3.77
2018-07-19T05:22:49.441Z,3.47
2018-07-19T05:23:52.843Z,3.60
2018-07-19T05:24:55.942Z,3.00
2018-07-19T05:26:00.432Z,3.60
2018-07-19T05:27:03.855Z,3.45
2018-07-19T05:28:10.144Z,3.40
2018-07-19T05:29:13.539Z,3.47
2018-07-19T05:30:19.069Z,3.72
2018-07-19T05:31:23.184Z,3.35
2018-07-19T05:32:26.603Z,3.40
2018-07-19T05:33:29.991Z,3.55
2018-07-19T05:34:33.451Z,3.40
2018-07-19T05:35:38.343Z,3.47
2018-07-19T05:36:41.759Z,3.42
2018-07-19T05:37:45.167Z,3.83
2018-07-19T05:38:48.563Z,3.50
2018-07-19T05:39:51.951Z,3.70
2018-07-19T05:40:56.381Z,3.80
2018-07-19T05:41:59.846Z,4.10
2018-07-19T05:43:03.212Z,3.95
2018-07-19T05:44:06.384Z,3.83
2018-07-19T05:45:10.843Z,3.40
2018-07-19T05:46:15.319Z,3.70
2018-07-19T05:47:18.763Z,3.60
2018-07-19T05:48:22.177Z,3.47
2018-07-19T05:49:25.562Z,3.98
2018-07-19T05:50:30.081Z,3.20
2018-07-19T05:51:33.175Z,3.35
2018-07-19T05:52:36.631Z,3.37
2018-07-19T05:53:40.051Z,3.52
2018-07-19T05:54:43.445Z,3.70
2018-07-19T05:55:47.216Z,3.67
2018-07-19T05:56:50.687Z,3.47
2018-07-19T05:57:54.087Z,3.20
2018-07-19T05:58:57.524Z,3.12
2018-07-19T06:00:00.924Z,3.12
2018-07-19T06:01:05.711Z,3.30
2018-07-19T06:02:09.299Z,3.67
2018-07-19T06:03:12.695Z,3.45
2018-07-19T06:04:16.112Z,3.72
2018-07-19T06:05:20.549Z,3.15
2018-07-19T06:06:25.320Z,3.08
2018-07-19T06:07:28.747Z,4.05
2018-07-19T06:08:32.131Z,3.67
2018-07-19T06:09:35.590Z,4.08
2018-07-19T06:10:39.935Z,3.50
2018-07-19T06:11:43.363Z,3.72
2018-07-19T06:12:46.783Z,3.85
2018-07-19T06:13:50.206Z,3.62
2018-07-19T06:14:53.619Z,3.50
2018-07-19T06:15:59.138Z,3.40
2018-07-19T06:17:02.587Z,3.40
2018-07-19T06:18:05.995Z,3.92
2018-07-19T06:19:09.371Z,3.80
2018-07-19T06:20:13.937Z,3.17
2018-07-19T06:21:18.497Z,3.37
2018-07-19T06:22:22.207Z,3.40
2018-07-19T06:23:25.633Z,3.47
2018-07-19T06:24:29.027Z,3.72
2018-07-19T06:25:33.572Z,3.50
2018-07-19T06:26:36.718Z,3.30
2018-07-19T06:27:40.107Z,3.33
2018-07-19T06:28:43.499Z,3.60
2018-07-19T06:29:46.888Z,3.50
2018-07-19T06:30:51.463Z,3.20
2018-07-19T06:31:55.203Z,3.60
2018-07-19T06:32:58.655Z,3.37
2018-07-19T06:34:02.068Z,4.30
2018-07-19T06:35:06.528Z,4.08
2018-07-19T06:36:11.072Z,3.80
2018-07-19T06:37:14.503Z,4.00
2018-07-19T06:38:17.953Z,3.75
2018-07-19T06:39:21.339Z,3.70
2018-07-19T06:40:25.785Z,4.00
2018-07-19T06:41:29.940Z,4.17
2018-07-19T06:42:33.359Z,3.98
2018-07-19T06:43:36.759Z,3.72
2018-07-19T06:44:40.155Z,3.83
2018-07-19T06:45:45.241Z,4.22
2018-07-19T06:46:48.703Z,3.70
2018-07-19T06:47:52.095Z,3.58
2018-07-19T06:48:55.479Z,3.92
2018-07-19T06:49:58.871Z,3.62
2018-07-19T06:51:03.319Z,4.05
2018-07-19T06:52:07.195Z,3.98
2018-07-19T06:53:10.591Z,3.67
2018-07-19T06:54:13.987Z,3.95
2018-07-19T06:55:18.343Z,3.90
2018-07-19T06:56:22.782Z,4.50
2018-07-19T06:57:26.258Z,4.50
2018-07-19T06:58:35.943Z,4.22
2018-07-19T06:59:39.471Z,4.05
2018-07-19T07:00:44.435Z,3.83
2018-07-19T07:01:47.887Z,3.83
2018-07-19T07:02:51.308Z,4.42
2018-07-19T07:03:55.108Z,4.22
2018-07-19T07:04:58.495Z,4.30
2018-07-19T07:06:02.850Z,4.42
2018-07-19T07:07:06.609Z,4.40
2018-07-19T07:08:10.063Z,4.20
2018-07-19T07:09:13.459Z,3.62
2018-07-19T07:10:18.790Z,3.90
2018-07-19T07:11:24.463Z,3.85
2018-07-19T07:12:28.426Z,3.83
2018-07-19T07:13:31.833Z,4.08
2018-07-19T07:14:35.223Z,4.17
2018-07-19T07:15:39.612Z,3.98
2018-07-19T07:16:43.035Z,4.42
2018-07-19T07:17:46.415Z,3.80
2018-07-19T07:18:49.815Z,3.70
2018-07-19T07:19:53.207Z,4.15
2018-07-19T07:20:57.208Z,3.70
2018-07-19T07:22:00.636Z,3.92
2018-07-19T07:23:04.059Z,4.20
2018-07-19T07:24:07.471Z,4.03
2018-07-19T07:25:12.103Z,3.67
2018-07-19T07:26:16.589Z,3.70
2018-07-19T07:27:20.025Z,4.05
2018-07-19T07:28:24.825Z,3.75
2018-07-19T07:29:27.943Z,4.15
2018-07-19T07:30:32.431Z,4.05
2018-07-19T07:31:35.566Z,3.52
2018-07-19T07:32:38.959Z,4.00
2018-07-19T07:33:42.355Z,4.45
2018-07-19T07:34:45.764Z,3.80
2018-07-19T07:35:50.487Z,4.20
2018-07-19T07:36:53.660Z,4.20
2018-07-19T07:37:57.063Z,4.10
2018-07-19T07:39:00.506Z,3.83
2018-07-19T07:40:04.534Z,3.60
2018-07-19T07:41:08.927Z,4.35
2018-07-19T07:42:12.100Z,3.70
2018-07-19T07:43:15.499Z,3.70
2018-07-19T07:44:18.956Z,4.00
2018-07-19T07:45:23.394Z,3.50
2018-07-19T07:46:27.883Z,3.40
2018-07-19T07:47:31.306Z,3.33
2018-07-19T07:48:34.699Z,3.30
2018-07-19T07:49:44.606Z,3.77
2018-07-19T07:50:50.071Z,3.70
2018-07-19T07:51:53.520Z,3.60
2018-07-19T07:52:56.911Z,3.35
2018-07-19T07:54:00.344Z,3.27
2018-07-19T07:55:05.476Z,3.45
2018-07-19T07:56:09.873Z,4.92
2018-07-19T07:57:13.295Z,3.52
2018-07-19T07:58:16.679Z,3.35
2018-07-19T07:59:20.135Z,3.77
2018-07-19T08:00:24.633Z,3.20
2018-07-19T08:01:28.452Z,3.55
2018-07-19T08:02:31.859Z,4.20
2018-07-19T08:03:35.251Z,3.55
2018-07-19T08:04:38.923Z,3.70
2018-07-19T08:05:43.466Z,3.58
2018-07-19T08:06:46.915Z,3.10
2018-07-19T08:07:50.315Z,3.12
2018-07-19T08:08:53.729Z,3.12
2018-07-19T08:09:57.115Z,2.90
2018-07-19T08:11:00.889Z,3.75
2018-07-19T08:12:04.347Z,3.15
2018-07-19T08:13:07.739Z,2.83
2018-07-19T08:14:11.139Z,3.83
2018-07-19T08:15:15.586Z,3.85
2018-07-19T08:16:20.151Z,3.65
2018-07-19T08:17:23.641Z,4.15
2018-07-19T08:18:27.054Z,3.95
2018-07-19T08:19:30.451Z,4.17
2018-07-19T08:20:34.958Z,6.85
2018-07-19T08:21:38.832Z,6.25
2018-07-19T08:22:42.255Z,5.12
2018-07-19T08:23:45.691Z,4.60
2018-07-19T08:24:49.090Z,4.30
2018-07-19T08:25:53.442Z,6.20
2018-07-19T08:26:56.875Z,8.73
2018-07-19T08:28:00.307Z,7.20
2018-07-19T08:29:03.733Z,4.60
2018-07-19T08:30:08.645Z,3.58
2018-07-19T08:31:13.609Z,3.50
2018-07-19T08:32:17.047Z,3.30
2018-07-19T08:33:20.448Z,3.15
2018-07-19T08:34:23.833Z,4.33
2018-07-19T08:35:28.392Z,4.47
2018-07-19T08:36:31.787Z,3.90
2018-07-19T08:37:35.179Z,3.05
2018-07-19T08:38:38.596Z,3.70
2018-07-19T08:39:41.992Z,3.10
2018-07-19T08:40:46.353Z,4.53
2018-07-19T08:41:49.789Z,4.28
2018-07-19T08:42:53.503Z,4.97
2018-07-19T08:43:56.915Z,4.12
2018-07-19T08:45:00.002Z,3.20
2018-07-19T08:46:03.847Z,3.22
2018-07-19T08:47:07.270Z,3.20
2018-07-19T08:48:10.660Z,3.83
2018-07-19T08:49:14.071Z,3.42
2018-07-19T08:50:17.904Z,2.98
2018-07-19T08:51:22.443Z,3.83
2018-07-19T08:52:25.845Z,4.50
2018-07-19T08:53:29.239Z,3.72
2018-07-19T08:54:32.342Z,2.90
2018-07-19T08:55:36.727Z,3.25
2018-07-19T08:56:40.215Z,3.35
2018-07-19T08:57:43.585Z,3.47
2018-07-19T08:58:46.975Z,3.22
2018-07-19T08:59:50.395Z,2.77
2018-07-19T09:00:54.882Z,2.98
2018-07-19T09:01:58.311Z,2.70
2018-07-19T09:03:01.716Z,2.65
2018-07-19T09:04:05.111Z,2.90
2018-07-19T09:05:09.504Z,3.10
2018-07-19T09:06:14.141Z,3.25
2018-07-19T09:07:17.574Z,5.28
2018-07-19T09:08:20.969Z,4.85
2018-07-19T09:09:24.351Z,4.70
2018-07-19T09:10:28.942Z,3.10
2018-07-19T09:11:33.564Z,2.75
2018-07-19T09:12:36.652Z,2.60
2018-07-19T09:13:39.738Z,2.70
2018-07-19T09:14:43.152Z,3.10
2018-07-19T09:15:47.632Z,2.87
2018-07-19T09:16:51.279Z,2.90
2018-07-19T09:17:54.672Z,2.92
2018-07-19T09:18:58.063Z,3.40
2018-07-19T09:20:01.451Z,2.83
2018-07-19T09:21:05.904Z,3.42
2018-07-19T09:22:09.331Z,2.65
2018-07-19T09:23:12.747Z,3.00
2018-07-19T09:24:16.139Z,8.48
2018-07-19T09:25:21.043Z,4.45
2018-07-19T09:26:25.049Z,4.55
2018-07-19T09:27:28.481Z,3.10
2018-07-19T09:28:31.872Z,2.65
2018-07-19T09:29:35.263Z,2.90
2018-07-19T09:30:39.825Z,3.20
2018-07-19T09:31:43.303Z,2.80
2018-07-19T09:32:46.713Z,3.15
2018-07-19T09:33:50.115Z,3.20
2018-07-19T09:34:53.518Z,2.90
2018-07-19T09:35:58.320Z,3.02
2018-07-19T09:37:01.768Z,2.98
2018-07-19T09:38:05.191Z,3.65
2018-07-19T09:39:11.084Z,3.15
2018-07-19T09:40:15.491Z,3.12
2018-07-19T09:41:19.863Z,2.90
2018-07-19T09:42:23.299Z,3.20
2018-07-19T09:43:26.718Z,3.00
2018-07-19T09:44:30.105Z,3.35
2018-07-19T09:45:35.587Z,4.28
2018-07-19T09:46:39.084Z,3.70
2018-07-19T09:47:42.498Z,3.50
2018-07-19T09:48:45.643Z,3.42
2018-07-19T09:49:49.004Z,4.03
2018-07-19T09:50:53.463Z,3.95
2018-07-19T09:51:56.899Z,5.00
2018-07-19T09:53:00.318Z,4.90
2018-07-19T09:54:03.803Z,3.05
2018-07-19T09:55:08.216Z,3.17
2018-07-19T09:56:12.774Z,3.08
2018-07-19T09:57:16.243Z,3.40
2018-07-19T09:58:19.647Z,3.15
2018-07-19T09:59:23.086Z,3.05
2018-07-19T10:00:32.548Z,2.92
2018-07-19T10:01:35.963Z,2.90
2018-07-19T10:02:39.391Z,2.90
2018-07-19T10:03:42.787Z,2.37
2018-07-19T10:04:49.195Z,2.85
2018-07-19T10:05:59.665Z,2.42
2018-07-19T10:07:03.082Z,3.10
2018-07-19T10:08:06.487Z,5.53
2018-07-19T10:09:09.888Z,3.35
2018-07-19T10:10:13.679Z,3.70
2018-07-19T10:11:18.269Z,2.72
2018-07-19T10:12:21.518Z,2.77
2018-07-19T10:13:24.970Z,2.70
2018-07-19T10:14:28.371Z,2.30
2018-07-19T10:15:32.889Z,2.37
2018-07-19T10:16:36.311Z,2.85
2018-07-19T10:17:39.699Z,2.67
2018-07-19T10:18:43.312Z,2.30
2018-07-19T10:19:46.744Z,2.80
2018-07-19T10:20:51.092Z,2.50
2018-07-19T10:21:55.200Z,2.90
2018-07-19T10:22:58.599Z,3.00
2018-07-19T10:24:02.119Z,2.98
2018-07-19T10:25:06.630Z,2.92
2018-07-19T10:26:11.765Z,2.40
2018-07-19T10:27:15.187Z,2.77
2018-07-19T10:28:25.327Z,2.47
2018-07-19T10:29:28.911Z,2.52
2018-07-19T10:30:33.287Z,2.62
2018-07-19T10:31:36.711Z,2.52
2018-07-19T10:32:40.160Z,3.00
2018-07-19T10:33:43.555Z,3.00
2018-07-19T10:34:46.967Z,2.83
2018-07-19T10:35:51.889Z,2.95
2018-07-19T10:36:55.495Z,2.80
2018-07-19T10:37:58.944Z,3.10
2018-07-19T10:39:02.343Z,3.08
2018-07-19T10:40:06.994Z,3.50
2018-07-19T10:41:11.918Z,2.72
2018-07-19T10:42:16.018Z,2.95
2018-07-19T10:43:19.404Z,2.97
2018-07-19T10:44:22.852Z,2.92
2018-07-19T10:45:28.117Z,2.85
2018-07-19T10:46:31.555Z,3.15
2018-07-19T10:47:34.967Z,2.90
2018-07-19T10:48:38.345Z,3.20
2018-07-19T10:49:41.724Z,3.42
2018-07-19T10:50:46.150Z,3.50
2018-07-19T10:51:49.594Z,3.02
2018-07-19T10:52:52.935Z,3.17
2018-07-19T10:53:56.307Z,3.00
2018-07-19T10:54:59.687Z,3.20
2018-07-19T10:56:04.348Z,3.42
2018-07-19T10:57:08.107Z,3.07
2018-07-19T10:58:11.499Z,3.02
2018-07-19T10:59:14.879Z,3.00
2018-07-19T11:00:19.297Z,3.10
2018-07-19T11:01:23.861Z,2.90
2018-07-19T11:02:27.264Z,3.02
2018-07-19T11:03:30.639Z,2.90
2018-07-19T11:04:34.135Z,3.60
2018-07-19T11:05:38.746Z,2.75
2018-07-19T11:06:42.156Z,3.00
2018-07-19T11:07:45.555Z,2.77
2018-07-19T11:08:48.935Z,3.13
2018-07-19T11:09:52.383Z,4.65
2018-07-19T11:10:56.676Z,3.25
2018-07-19T11:12:00.591Z,2.92
2018-07-19T11:13:03.975Z,3.15
2018-07-19T11:14:07.351Z,3.08
2018-07-19T11:15:11.278Z,3.30
2018-07-19T11:16:15.555Z,3.45
2018-07-19T11:17:18.984Z,3.00
2018-07-19T11:18:22.375Z,3.33
2018-07-19T11:19:25.763Z,3.43
2018-07-19T11:20:30.097Z,3.40
2018-07-19T11:21:33.488Z,3.53
2018-07-19T11:22:36.585Z,3.20
2018-07-19T11:23:40.016Z,3.62
2018-07-19T11:24:43.403Z,3.03
2018-07-19T11:25:47.926Z,3.33
2018-07-19T11:26:51.343Z,3.30
2018-07-19T11:27:54.797Z,3.35
2018-07-19T11:28:58.187Z,4.17
2018-07-19T11:30:01.605Z,3.17
2018-07-19T11:31:06.062Z,2.92
2018-07-19T11:32:09.479Z,3.20
2018-07-19T11:33:12.883Z,3.10
2018-07-19T11:34:16.267Z,3.17
2018-07-19T11:35:20.691Z,3.05
2018-07-19T11:36:24.770Z,3.10
2018-07-19T11:37:28.192Z,3.60
2018-07-19T11:38:31.675Z,2.83
2018-07-19T11:39:35.051Z,3.53
2018-07-19T11:40:39.616Z,3.20
2018-07-19T11:41:43.853Z,2.73
2018-07-19T11:42:47.235Z,3.00
2018-07-19T11:43:50.639Z,3.83
2018-07-19T11:44:53.731Z,3.45
2018-07-19T11:45:58.430Z,3.20
2018-07-19T11:47:01.833Z,3.33
2018-07-19T11:48:05.792Z,3.00
2018-07-19T11:49:09.209Z,3.45
2018-07-19T11:50:14.238Z,3.17
2018-07-19T11:51:18.613Z,3.30
2018-07-19T11:52:22.027Z,3.33
2018-07-19T11:53:25.403Z,3.33
2018-07-19T11:54:28.803Z,3.07
2018-07-19T11:55:33.876Z,3.40
2018-07-19T11:56:37.255Z,3.10
2018-07-19T11:57:40.635Z,3.57
2018-07-19T11:58:44.017Z,4.10
2018-07-19T11:59:47.404Z,2.90
2018-07-19T12:00:52.091Z,3.58
2018-07-19T12:01:55.510Z,3.30
2018-07-19T12:02:58.893Z,3.40
2018-07-19T12:04:02.277Z,3.08
2018-07-19T12:05:06.477Z,3.42
2018-07-19T12:06:10.883Z,3.20
2018-07-19T12:07:14.287Z,3.30
2018-07-19T12:08:17.664Z,3.30
2018-07-19T12:09:21.067Z,3.27
2018-07-19T12:10:25.628Z,2.90
2018-07-19T12:11:29.920Z,3.40
2018-07-19T12:12:33.291Z,3.20
2018-07-19T12:13:36.731Z,3.17
2018-07-19T12:14:40.139Z,4.33
2018-07-19T12:15:44.512Z,3.27
2018-07-19T12:16:47.911Z,3.43
2018-07-19T12:17:51.338Z,3.50
2018-07-19T12:18:54.696Z,3.90
2018-07-19T12:19:58.099Z,3.30
2018-07-19T12:21:02.531Z,3.03
2018-07-19T12:22:05.967Z,3.03
2018-07-19T12:23:09.383Z,3.07
2018-07-19T12:24:12.752Z,3.20
2018-07-19T12:25:17.287Z,3.50
2018-07-19T12:26:21.843Z,3.42
2018-07-19T12:27:25.235Z,3.23
2018-07-19T12:28:28.617Z,3.67
2018-07-19T12:29:31.696Z,3.50
2018-07-19T12:30:36.367Z,3.23
2018-07-19T12:31:39.755Z,3.40
2018-07-19T12:32:43.123Z,3.47
2018-07-19T12:33:46.737Z,3.40
2018-07-19T12:34:50.107Z,3.37
2018-07-19T12:35:54.523Z,3.80
2018-07-19T12:36:58.170Z,3.70
2018-07-19T12:38:01.532Z,3.50
2018-07-19T12:39:08.033Z,3.27
2018-07-19T12:40:13.533Z,3.27
2018-07-19T12:41:18.159Z,3.20
2018-07-19T12:42:22.007Z,3.20
2018-07-19T12:43:25.387Z,3.30
2018-07-19T12:44:28.759Z,3.03
2018-07-19T12:45:33.282Z,2.67
2018-07-19T12:46:36.696Z,3.47
2018-07-19T12:47:40.080Z,3.17
2018-07-19T12:48:43.453Z,3.00
2018-07-19T12:49:46.847Z,3.20
2018-07-19T12:50:52.001Z,3.00
2018-07-19T12:51:55.106Z,3.20
2018-07-19T12:52:58.171Z,3.30
2018-07-19T12:54:01.243Z,3.43
2018-07-19T12:55:05.336Z,3.00
2018-07-19T12:56:09.772Z,2.70
2018-07-19T12:57:13.211Z,2.80
2018-07-19T12:58:16.638Z,3.10
2018-07-19T12:59:20.067Z,2.97
2018-07-19T13:00:24.425Z,2.97
2018-07-19T13:01:28.567Z,2.85
2018-07-19T13:02:31.989Z,3.00
2018-07-19T13:03:35.363Z,2.60
2018-07-19T13:04:38.752Z,3.10
2018-07-19T13:05:43.135Z,3.10
2018-07-19T13:06:46.746Z,3.23
2018-07-19T13:07:50.139Z,3.23
2018-07-19T13:08:53.616Z,2.73
2018-07-19T13:09:57.105Z,2.87
2018-07-19T13:11:01.448Z,2.93
2018-07-19T13:12:04.850Z,2.67
2018-07-19T13:13:08.411Z,2.90
2018-07-19T13:14:13.139Z,2.60
2018-07-19T13:15:17.694Z,3.17
2018-07-19T13:16:22.215Z,3.40
2018-07-19T13:17:26.245Z,3.00
2018-07-19T13:18:29.627Z,3.10
2018-07-19T13:19:32.999Z,2.77
2018-07-19T13:20:37.427Z,3.10
2018-07-19T13:21:40.812Z,2.87
2018-07-19T13:22:44.187Z,3.00
2018-07-19T13:23:48.004Z,3.00
2018-07-19T13:24:51.795Z,3.07
2018-07-19T13:25:56.373Z,2.80
2018-07-19T13:26:59.791Z,3.43
2018-07-19T13:28:03.159Z,3.00
2018-07-19T13:29:06.551Z,2.80
2018-07-19T13:30:10.952Z,2.60
2018-07-19T13:31:15.488Z,3.20
2018-07-19T13:32:18.899Z,3.20
2018-07-19T13:33:22.271Z,3.13
2018-07-19T13:34:25.663Z,3.20
2018-07-19T13:35:30.059Z,2.90
2018-07-19T13:36:33.562Z,3.10
2018-07-19T13:37:36.865Z,3.10
2018-07-19T13:38:39.946Z,3.33
2018-07-19T13:39:43.290Z,2.93
2018-07-19T13:40:48.545Z,2.80
2018-07-19T13:41:51.975Z,2.90
2018-07-19T13:42:55.387Z,2.87
2018-07-19T13:43:58.843Z,2.70
2018-07-19T13:45:03.776Z,3.63
2018-07-19T13:46:08.483Z,3.60
2018-07-19T13:47:12.094Z,3.30
2018-07-19T13:48:15.579Z,2.80
2018-07-19T13:49:19.085Z,3.13
2018-07-19T13:50:23.685Z,3.23
2018-07-19T13:51:28.788Z,3.43
2018-07-19T13:52:43.396Z,3.50
2018-07-19T13:54:27.139Z,2.90
2018-07-19T13:55:31.689Z,3.00
2018-07-19T13:56:35.406Z,3.43
2018-07-19T13:57:38.779Z,3.20
2018-07-19T13:58:42.163Z,2.73
2018-07-19T13:59:45.629Z,2.90
2018-07-19T14:00:50.815Z,2.77
2018-07-19T14:01:54.215Z,2.93
2018-07-19T14:02:57.587Z,3.10
2018-07-19T14:04:01.016Z,3.07
2018-07-19T14:05:05.475Z,2.90
2018-07-19T14:06:09.934Z,2.60
2018-07-19T14:07:13.323Z,2.90
2018-07-19T14:08:16.718Z,3.07
2018-07-19T14:09:20.087Z,3.00
2018-07-19T14:10:24.542Z,3.10